Time;durP1;ratioP1;P1;durP2;ratioP2;P2;SDS_P1;SDS_P2;PMS_P1;PMS_P2;Temp;Humidity;BMP_temperature;BMP_pressure;BME280_temperature;BME280_humidity;BME280_pressure;Samples;Min_cycle;Max_cycle;Signal;HPM_P1;HPM_P2
2022/10/11 00:01:33;;;;;;;23.37;9.20;;;;;;;5.93;62.80;101497.34;124646;1099;104321;-77
2022/10/11 00:04:04;;;;;;;18.97;8.47;;;;;;;5.91;62.76;101500.66;124598;1098;102219;-77
2022/10/11 00:06:36;;;;;;;20.60;8.60;;;;;;;5.90;63.06;101497.13;124549;1099;104270;-76
2022/10/11 00:09:07;;;;;;;20.60;8.93;;;;;;;5.88;63.03;101493.52;124536;1099;104303;-77
2022/10/11 00:11:39;;;;;;;20.77;8.83;;;;;;;5.85;63.52;101495.02;124593;1099;104315;-76
2022/10/11 00:14:10;;;;;;;19.13;7.83;;;;;;;5.80;63.49;101494.69;124555;1099;104333;-77
2022/10/11 00:16:43;;;;;;;21.07;8.23;;;;;;;5.80;63.82;101488.55;124571;1098;102643;-77
2022/10/11 00:19:14;;;;;;;19.60;8.33;;;;;;;5.79;63.78;101497.19;124596;1099;103311;-76
2022/10/11 00:21:46;;;;;;;21.77;9.07;;;;;;;5.76;64.03;101492.66;124594;1099;104162;-76
2022/10/11 00:24:17;;;;;;;19.40;8.37;;;;;;;5.69;64.32;101485.22;124573;1099;104354;-77
2022/10/11 00:26:48;;;;;;;19.40;7.93;;;;;;;5.67;64.60;101481.58;124486;1099;104342;-76
2022/10/11 00:29:20;;;;;;;20.93;8.23;;;;;;;5.62;64.66;101480.36;124174;1102;102845;-76
2022/10/11 00:31:51;;;;;;;19.23;8.27;;;;;;;5.57;64.60;101475.72;124501;1099;104820;-77
2022/10/11 00:34:22;;;;;;;24.50;8.57;;;;;;;5.54;64.86;101479.81;124627;1099;101910;-77
2022/10/11 00:36:53;;;;;;;22.00;8.70;;;;;;;5.51;65.63;101471.78;124651;1099;104166;-77
2022/10/11 00:39:24;;;;;;;21.13;7.80;;;;;;;5.46;64.59;101475.77;124610;1099;104175;-77
2022/10/11 00:41:55;;;;;;;19.90;8.17;;;;;;;5.45;64.55;101473.94;124616;1099;104169;-77
2022/10/11 00:44:29;;;;;;;22.67;8.47;;;;;;;5.43;64.54;101475.55;124627;1098;104220;-77
2022/10/11 00:47:03;;;;;;;18.48;8.23;;;;;;;5.42;64.83;101473.72;124587;1099;102912;-77
2022/10/11 00:49:38;;;;;;;18.80;7.97;;;;;;;5.38;64.64;101463.09;124558;1099;104272;-76
2022/10/11 00:52:15;;;;;;;21.23;8.17;;;;;;;5.36;64.90;101472.50;124550;1099;104223;-77
2022/10/11 00:54:48;;;;;;;18.43;8.00;;;;;;;5.35;65.10;101468.08;124574;1099;104245;-76
2022/10/11 00:57:22;;;;;;;18.60;8.03;;;;;;;5.35;64.82;101464.58;124258;1099;104176;-76
2022/10/11 00:59:55;;;;;;;20.57;8.38;;;;;;;5.34;64.69;101465.36;124622;1098;104243;-77
2022/10/11 01:02:29;;;;;;;21.52;8.73;;;;;;;5.33;64.93;101464.47;124580;1099;104218;-77
2022/10/11 01:05:00;;;;;;;18.43;8.10;;;;;;;5.32;65.17;101461.75;124584;1099;104169;-76
2022/10/11 01:07:32;;;;;;;22.70;8.47;;;;;;;5.31;64.81;101460.83;124601;1099;104265;-76
2022/10/11 01:10:03;;;;;;;20.80;7.60;;;;;;;5.31;65.33;101460.83;124609;1099;103650;-76
2022/10/11 01:12:35;;;;;;;19.50;7.70;;;;;;;5.28;65.18;101458.00;124616;1099;104351;-78
2022/10/11 01:15:16;;;;;;;21.80;8.50;;;;;;;5.27;65.26;101448.41;124616;1099;104349;-77
2022/10/11 01:17:56;;;;;;;20.43;8.50;;;;;;;5.26;65.59;101459.59;124553;1099;102940;-76
2022/10/11 01:20:41;;;;;;;18.63;8.20;;;;;;;5.24;65.90;101458.59;124648;1099;104190;-77
2022/10/11 01:23:46;;;;;;;20.77;8.03;;;;;;;5.23;65.31;101456.77;124556;1099;102912;-76
2022/10/11 01:26:54;;;;;;;21.00;8.03;;;;;;;5.22;65.35;101457.59;124616;1099;104233;-77
2022/10/11 01:29:41;;;;;;;19.37;8.27;;;;;;;5.20;65.61;101457.48;124462;1099;119786;-76
2022/10/11 01:32:17;;;;;;;21.13;8.10;;;;;;;5.21;65.56;101458.38;124584;1099;102844;-77
2022/10/11 01:34:56;;;;;;;21.27;8.07;;;;;;;5.19;65.69;101459.97;124609;1099;104277;-77
2022/10/11 01:37:33;;;;;;;21.40;8.20;;;;;;;5.16;65.62;101457.14;124601;1099;104169;-77
2022/10/11 01:40:09;;;;;;;21.80;8.67;;;;;;;5.13;66.37;101463.02;124596;1099;104261;-77
2022/10/11 01:42:41;;;;;;;20.63;7.80;;;;;;;5.10;65.90;101457.59;124615;1099;104261;-76
2022/10/11 01:45:17;;;;;;;22.20;9.27;;;;;;;4.99;66.39;101445.50;124666;1099;104201;-77
2022/10/11 01:48:00;;;;;;;19.70;8.57;;;;;;;5.06;65.91;101459.85;124638;1099;103685;-77
2022/10/11 01:50:38;;;;;;;21.47;8.23;;;;;;;4.98;66.09;101465.39;124597;1099;102876;-76
2022/10/11 01:53:23;;;;;;;18.63;8.20;;;;;;;4.90;66.57;101461.33;124170;1099;102969;-77
2022/10/11 01:55:58;;;;;;;25.10;9.03;;;;;;;4.85;66.13;101458.39;124607;1099;102966;-76
2022/10/11 01:58:44;;;;;;;20.20;8.50;;;;;;;4.80;66.12;101462.35;124582;1099;104185;-76
2022/10/11 02:01:26;;;;;;;22.00;8.50;;;;;;;4.77;66.60;101453.39;124655;1099;103680;-77
2022/10/11 02:04:05;;;;;;;22.37;8.07;;;;;;;4.75;66.77;101461.08;124610;1099;102676;-76
2022/10/11 02:06:47;;;;;;;18.30;7.90;;;;;;;4.74;66.80;101458.40;124627;1099;102188;-76
2022/10/11 02:09:26;;;;;;;19.83;8.57;;;;;;;4.68;66.87;101457.13;124648;1099;104195;-76
2022/10/11 02:12:02;;;;;;;21.37;7.73;;;;;;;4.64;66.58;101457.71;124568;1099;104156;-76
2022/10/11 02:14:39;;;;;;;17.60;7.83;;;;;;;4.59;67.09;101455.55;124644;1099;104240;-76
2022/10/11 02:17:15;;;;;;;17.13;7.93;;;;;;;4.51;67.04;101457.56;124634;1099;101830;-77
2022/10/11 02:19:49;;;;;;;21.10;8.00;;;;;;;4.48;66.83;101450.43;124180;1099;102907;-76
2022/10/11 02:22:24;;;;;;;23.10;8.33;;;;;;;4.45;66.91;101449.30;124590;1099;104287;-76
2022/10/11 02:25:00;;;;;;;19.97;8.10;;;;;;;4.42;67.89;101456.87;124553;1099;104169;-77
2022/10/11 02:27:34;;;;;;;17.23;7.67;;;;;;;4.39;67.78;101454.04;124511;1099;104181;-77
2022/10/11 02:30:08;;;;;;;17.52;7.62;;;;;;;4.37;67.73;101447.83;124581;1099;103286;-77
2022/10/11 02:32:43;;;;;;;20.07;7.90;;;;;;;4.37;67.49;101447.83;124643;1099;104200;-76
2022/10/11 02:35:15;;;;;;;18.23;7.53;;;;;;;4.37;67.20;101442.63;124581;1099;102247;-76
2022/10/11 02:37:52;;;;;;;16.80;7.47;;;;;;;4.36;67.50;101439.11;124575;1099;104248;-77
2022/10/11 02:40:29;;;;;;;20.50;7.87;;;;;;;4.37;67.68;101440.93;124625;1099;104264;-76
2022/10/11 02:43:05;;;;;;;17.37;7.30;;;;;;;4.37;67.62;101442.63;124563;1099;104274;-76
2022/10/11 02:45:41;;;;;;;17.73;7.43;;;;;;;4.38;68.05;101442.75;124582;1099;102320;-77
2022/10/11 02:48:13;;;;;;;18.20;7.47;;;;;;;4.39;67.72;101438.45;124616;1099;104204;-77
2022/10/11 02:50:44;;;;;;;20.20;7.80;;;;;;;4.42;67.91;101444.77;124599;1099;102835;-77
2022/10/11 02:53:15;;;;;;;17.77;7.40;;;;;;;4.41;68.43;101444.66;124638;1099;102921;-78
2022/10/11 02:55:47;;;;;;;17.77;7.37;;;;;;;4.39;67.36;101435.84;124609;1099;104272;-78
2022/10/11 02:58:19;;;;;;;20.10;7.50;;;;;;;4.42;68.41;101436.08;124712;1099;104265;-77
2022/10/11 03:00:50;;;;;;;18.55;7.20;;;;;;;4.45;68.20;101438.91;124642;1099;104195;-77
2022/10/11 03:03:24;;;;;;;18.33;7.33;;;;;;;4.46;68.13;101438.13;124594;1099;104165;-77
2022/10/11 03:05:59;;;;;;;;;;;;;;;4.44;69.12;101431.89;124677;1099;104166;-76
2022/10/11 03:08:33;;;;;;;19.85;6.30;;;;;;;4.42;68.82;101434.38;124626;1099;104720;-77
2022/10/11 03:11:05;;;;;;;19.32;7.12;;;;;;;4.39;68.69;101433.25;124673;1099;104242;-77
2022/10/11 03:13:36;;;;;;;19.93;7.50;;;;;;;4.38;68.46;101436.63;124253;1099;104160;-78
2022/10/11 03:16:07;;;;;;;18.53;7.30;;;;;;;4.35;68.50;101434.72;124572;1099;104194;-77
2022/10/11 03:18:38;;;;;;;16.33;7.00;;;;;;;4.33;69.00;101433.68;124500;1098;104786;-78
2022/10/11 03:21:10;;;;;;;15.97;7.03;;;;;;;4.31;68.65;101427.47;124651;1098;104248;-77
2022/10/11 03:23:42;;;;;;;18.87;7.60;;;;;;;4.26;69.11;101427.13;124595;1097;104172;-77
2022/10/11 03:26:13;;;;;;;18.27;7.97;;;;;;;4.25;68.13;101427.01;124644;1099;103100;-78
2022/10/11 03:28:44;;;;;;;18.57;8.13;;;;;;;4.24;68.91;101430.38;124562;1099;104374;-77
2022/10/11 03:31:17;;;;;;;17.73;8.13;;;;;;;4.29;68.37;101424.76;124634;1099;102873;-77
2022/10/11 03:33:48;;;;;;;19.80;7.90;;;;;;;4.32;69.06;101427.59;124627;1099;104162;-77
2022/10/11 03:36:19;;;;;;;16.70;7.83;;;;;;;4.31;68.16;101428.37;124637;1099;104233;-77
2022/10/11 03:38:50;;;;;;;20.50;7.40;;;;;;;4.27;68.38;101425.42;124188;1099;104236;-77
2022/10/11 03:41:22;;;;;;;18.23;8.00;;;;;;;4.21;68.38;101428.48;124619;1098;104245;-77
2022/10/11 03:43:53;;;;;;;18.50;8.20;;;;;;;4.16;68.31;101424.64;124624;1098;104264;-77
2022/10/11 03:46:24;;;;;;;20.50;7.17;;;;;;;4.11;68.73;101423.36;124579;1099;102253;-77
2022/10/11 03:48:55;;;;;;;21.07;7.67;;;;;;;4.07;68.64;101416.14;124646;1099;104182;-77
2022/10/11 03:51:26;;;;;;;17.37;7.33;;;;;;;4.04;68.83;101418.50;124424;1099;104306;-77
2022/10/11 03:53:57;;;;;;;18.87;7.90;;;;;;;4.05;69.10;101420.29;124596;1099;104236;-77
2022/10/11 03:56:29;;;;;;;23.33;7.40;;;;;;;4.04;68.88;101413.31;124671;1098;104251;-77
2022/10/11 03:59:00;;;;;;;17.67;7.07;;;;;;;4.03;69.09;101416.68;124688;1099;104203;-78
2022/10/11 04:01:36;;;;;;;22.87;7.60;;;;;;;4.00;68.78;101421.64;124669;1099;104245;-78
2022/10/11 04:04:07;;;;;;;17.67;7.07;;;;;;;4.00;68.41;101416.45;124674;1099;104284;-78
2022/10/11 04:06:38;;;;;;;22.70;8.10;;;;;;;4.02;69.45;101420.05;124725;1099;102995;-78
2022/10/11 04:09:09;;;;;;;36.63;9.83;;;;;;;4.06;68.79;101416.92;124755;1099;104259;-78
2022/10/11 04:11:41;;;;;;;21.80;8.20;;;;;;;4.05;68.67;101425.48;124774;1099;104169;-78
2022/10/11 04:14:12;;;;;;;24.30;8.00;;;;;;;4.00;69.62;101419.94;124668;1099;104153;-78
2022/10/11 04:16:43;;;;;;;22.87;8.10;;;;;;;3.98;69.31;101428.42;124723;1099;104198;-78
2022/10/11 04:19:14;;;;;;;19.70;8.03;;;;;;;3.91;68.80;101427.94;124595;1099;104294;-78
2022/10/11 04:21:45;;;;;;;22.63;8.17;;;;;;;3.85;69.27;101432.66;124909;1099;102165;-78
2022/10/11 04:24:18;;;;;;;24.87;8.60;;;;;;;3.81;69.52;101435.80;124785;1099;104230;-78
2022/10/11 04:26:49;;;;;;;21.55;9.90;;;;;;;3.80;69.33;101440.87;124883;1099;102870;-78
2022/10/11 04:29:21;;;;;;;25.53;8.97;;;;;;;3.87;69.49;101435.38;124921;1099;104214;-78
2022/10/11 04:31:52;;;;;;;22.80;8.97;;;;;;;3.95;69.60;101440.36;124785;1099;104185;-78
2022/10/11 04:34:23;;;;;;;27.40;10.90;;;;;;;4.03;69.70;101446.14;124732;1099;104188;-78
2022/10/11 04:36:54;;;;;;;22.17;8.93;;;;;;;4.07;69.58;101440.41;124287;1099;104223;-77
2022/10/11 04:39:25;;;;;;;21.63;9.03;;;;;;;4.08;69.42;101442.23;124691;1099;104265;-77
2022/10/11 04:41:56;;;;;;;24.03;8.67;;;;;;;4.10;68.85;101439.75;124711;1099;104176;-77
2022/10/11 04:44:28;;;;;;;26.27;9.40;;;;;;;4.09;70.20;101437.93;124677;1099;102915;-77
2022/10/11 04:47:01;;;;;;;23.30;8.83;;;;;;;4.14;69.65;101437.50;124689;1099;102953;-77
2022/10/11 04:49:32;;;;;;;24.37;9.33;;;;;;;4.24;70.17;101439.10;124693;1099;102860;-78
2022/10/11 04:52:03;;;;;;;20.70;9.05;;;;;;;4.30;69.91;101444.77;124803;1099;104172;-78
2022/10/11 04:54:34;;;;;;;20.83;8.47;;;;;;;4.38;70.34;101445.35;124897;1099;102261;-78
2022/10/11 04:57:06;;;;;;;23.35;8.55;;;;;;;4.42;69.54;101444.77;125097;1099;104188;-78
2022/10/11 04:59:37;;;;;;;28.13;9.47;;;;;;;4.47;70.18;101440.84;124984;1099;102216;-79
2022/10/11 05:02:10;;;;;;;20.57;8.57;;;;;;;4.50;69.85;101441.08;124878;1097;104083;-78
2022/10/11 05:04:41;;;;;;;19.13;8.40;;;;;;;4.57;70.30;101445.03;124882;1099;102806;-79
2022/10/11 05:07:12;;;;;;;19.70;8.90;;;;;;;4.62;70.26;101448.88;125012;1098;104214;-78
2022/10/11 05:09:44;;;;;;;19.30;7.77;;;;;;;4.55;70.05;101457.02;125072;1099;104752;-77
2022/10/11 05:12:15;;;;;;;22.43;8.33;;;;;;;4.44;70.13;101455.28;124961;1098;104236;-78
2022/10/11 05:14:46;;;;;;;18.90;8.95;;;;;;;4.44;69.57;101458.81;125053;1099;104197;-79
2022/10/11 05:17:17;;;;;;;24.93;9.13;;;;;;;4.54;69.85;101459.50;124947;1099;104243;-78
2022/10/11 05:19:48;;;;;;;22.43;8.00;;;;;;;4.65;69.90;101463.80;125063;1099;102822;-78
2022/10/11 05:22:24;;;;;;;21.87;8.40;;;;;;;4.68;69.85;101464.93;125120;1099;102523;-79
2022/10/11 05:24:58;;;;;;;23.43;8.23;;;;;;;4.78;70.24;101461.31;125325;1099;104261;-79
2022/10/11 05:27:28;;;;;;;;;;;;;;;4.87;70.31;101461.09;125179;1099;103682;-78
2022/10/11 05:30:03;;;;;;;23.80;8.50;;;;;;;4.94;70.20;101455.57;125283;1099;104194;-78
2022/10/11 05:32:35;;;;;;;18.90;8.63;;;;;;;5.02;70.29;101464.83;124630;1099;104292;-77
2022/10/11 05:35:08;;;;;;;19.73;8.67;;;;;;;5.10;70.39;101461.90;124662;1099;104271;-77
2022/10/11 05:37:41;;;;;;;18.60;7.25;;;;;;;5.15;70.03;101457.92;124452;1099;104163;-78
2022/10/11 05:40:14;;;;;;;23.25;8.00;;;;;;;5.16;70.29;101459.75;124470;1101;104185;-78
2022/10/11 05:42:46;;;;;;;22.70;8.00;;;;;;;5.22;70.00;101460.19;124695;1099;104187;-78
2022/10/11 05:45:18;;;;;;;21.50;8.20;;;;;;;5.27;69.93;101457.92;124523;1099;104469;-78
2022/10/11 05:47:53;;;;;;;20.70;8.30;;;;;;;5.30;69.66;101464.24;125039;1099;102906;-78
2022/10/11 05:50:29;;;;;;;23.87;8.00;;;;;;;5.35;70.03;101468.08;124800;1099;102854;-77
2022/10/11 05:53:01;;;;;;;21.33;7.67;;;;;;;5.42;70.41;101458.10;124831;1099;104236;-77
2022/10/11 05:55:37;;;;;;;22.13;8.30;;;;;;;5.47;70.13;101467.14;124630;1099;102822;-77
2022/10/11 05:58:12;;;;;;;18.13;6.97;;;;;;;5.50;70.14;101452.66;124737;1099;102511;-77
2022/10/11 06:00:44;;;;;;;18.57;7.70;;;;;;;5.55;69.91;101456.48;124761;1098;104221;-77
2022/10/11 06:03:19;;;;;;;19.60;7.67;;;;;;;5.63;69.68;101449.22;124961;1099;102863;-78
2022/10/11 06:05:56;;;;;;;19.47;8.17;;;;;;;5.68;70.53;101453.05;124932;1099;104233;-78
2022/10/11 06:08:30;;;;;;;21.13;8.43;;;;;;;5.74;70.08;101453.48;124928;1099;104253;-75
2022/10/11 06:11:12;;;;;;;19.60;8.20;;;;;;;5.70;70.41;101460.97;124834;1099;104664;-76
2022/10/11 06:13:58;;;;;;;23.20;9.77;;;;;;;5.64;70.28;101458.85;124674;1098;102799;-76
2022/10/11 06:16:30;;;;;;;23.60;9.90;;;;;;;5.61;70.82;101460.31;124409;1099;104185;-75
2022/10/11 06:19:03;;;;;;;21.53;10.00;;;;;;;5.53;70.89;101452.88;124257;1102;104166;-75
2022/10/11 06:21:34;;;;;;;23.87;10.53;;;;;;;5.55;71.08;101455.59;124785;1099;104277;-75
2022/10/11 06:24:09;;;;;;;24.97;10.87;;;;;;;5.58;70.99;101459.31;124526;1099;103354;-75
2022/10/11 06:26:41;;;;;;;26.70;10.50;;;;;;;5.69;70.75;101460.08;124743;1099;104351;-77
2022/10/11 06:29:16;;;;;;;25.63;10.70;;;;;;;5.82;70.62;101461.83;124959;1099;102339;-77
2022/10/11 06:31:51;;;;;;;27.40;10.73;;;;;;;5.96;70.79;101454.98;125348;1099;102265;-77
2022/10/11 06:34:23;;;;;;;22.93;10.07;;;;;;;6.12;70.92;101456.97;125880;1099;102319;-77
2022/10/11 06:36:56;;;;;;;23.53;10.73;;;;;;;6.24;70.81;101451.71;125566;1099;104223;-76
2022/10/11 06:39:31;;;;;;;23.20;10.37;;;;;;;6.35;71.26;101450.73;125445;1102;102266;-76
2022/10/11 06:42:06;;;;;;;26.13;10.27;;;;;;;6.45;71.33;101447.95;124579;1099;104230;-76
2022/10/11 06:44:39;;;;;;;28.30;10.23;;;;;;;6.58;71.51;101454.00;124790;1099;104211;-76
2022/10/11 06:47:15;;;;;;;20.17;8.87;;;;;;;6.68;71.67;101455.51;126227;1098;104238;-76
2022/10/11 06:49:51;;;;;;;23.97;9.83;;;;;;;6.77;71.06;101451.80;124617;1099;103276;-77
2022/10/11 06:52:30;;;;;;;21.90;9.60;;;;;;;6.90;71.16;101455.22;126579;1099;103461;-76
2022/10/11 06:55:03;;;;;;;23.67;9.60;;;;;;;7.03;71.14;101450.02;125319;1098;104238;-77
2022/10/11 06:57:37;;;;;;;26.47;9.83;;;;;;;7.24;71.20;101457.42;125358;1099;104162;-77
2022/10/11 07:00:15;;;;;;;21.13;9.57;;;;;;;7.41;70.94;101448.05;124932;1099;104206;-76
2022/10/11 07:02:51;;;;;;;22.90;9.33;;;;;;;7.55;71.40;101445.49;125253;1102;104284;-77
2022/10/11 07:05:25;;;;;;;24.20;9.97;;;;;;;7.60;70.97;101431.83;124826;1099;104184;-78
2022/10/11 07:08:02;;;;;;;23.80;9.30;;;;;;;7.77;70.65;101441.61;125018;1099;104396;-75
2022/10/11 07:10:43;;;;;;;19.17;8.67;;;;;;;7.90;71.21;101446.80;124887;1099;104238;-76
2022/10/11 07:13:26;;;;;;;21.33;8.53;;;;;;;8.03;70.94;101445.83;124785;1099;102340;-76
2022/10/11 07:16:22;;;;;;;22.10;9.17;;;;;;;8.20;70.45;101451.20;126132;1098;118936;-75
2022/10/11 07:18:57;;;;;;;23.23;9.53;;;;;;;8.38;70.83;101441.84;124383;1099;104244;-76
2022/10/11 07:21:33;;;;;;;22.23;9.50;;;;;;;8.54;70.83;101441.06;124759;1098;104281;-76
2022/10/11 07:24:17;;;;;;;29.50;9.93;;;;;;;8.71;70.88;101442.06;125686;1098;104160;-75
2022/10/11 07:26:50;;;;;;;24.27;10.60;;;;;;;8.90;70.23;101437.89;124917;1102;104169;-76
2022/10/11 07:29:22;;;;;;;27.30;10.90;;;;;;;9.07;70.33;101436.20;124904;1098;104195;-77
2022/10/11 07:31:56;;;;;;;26.77;10.90;;;;;;;9.27;70.22;101430.39;124808;1099;104231;-77
2022/10/11 07:34:30;;;;;;;29.90;11.65;;;;;;;9.46;69.66;101432.31;124407;1099;102492;-77
2022/10/11 07:37:02;;;;;;;29.90;11.93;;;;;;;9.61;69.91;101424.36;124882;1099;104162;-77
2022/10/11 07:39:35;;;;;;;29.63;10.90;;;;;;;9.80;69.70;101430.61;124886;1099;104162;-77
2022/10/11 07:42:08;;;;;;;27.27;11.07;;;;;;;9.96;69.52;101429.73;124819;1099;101925;-76
2022/10/11 07:44:40;;;;;;;26.77;11.27;;;;;;;10.12;69.91;101426.18;124316;1099;104205;-77
2022/10/11 07:47:16;;;;;;;24.80;10.80;;;;;;;10.26;69.35;101425.17;124762;1099;104136;-77
2022/10/11 07:49:57;;;;;;;21.50;9.97;;;;;;;10.41;69.37;101428.62;124844;1099;103735;-77
2022/10/11 07:52:36;;;;;;;31.50;11.03;;;;;;;10.57;68.66;101429.40;126439;1097;102934;-76
2022/10/11 07:55:12;;;;;;;24.20;9.47;;;;;;;10.70;68.96;101423.92;124964;1099;102295;-76
2022/10/11 07:57:47;;;;;;;27.20;9.77;;;;;;;10.83;67.67;101430.70;124539;1099;104290;-76
2022/10/11 08:00:20;;;;;;;28.90;10.37;;;;;;;10.95;68.07;101426.06;124794;1099;104173;-76
2022/10/11 08:02:57;;;;;;;27.17;10.20;;;;;;;11.11;67.90;101417.19;124907;1099;104232;-77
2022/10/11 08:05:32;;;;;;;24.57;9.57;;;;;;;11.31;68.18;101415.52;125935;1099;102358;-77
2022/10/11 08:08:07;;;;;;;22.40;10.13;;;;;;;11.47;67.83;101411.88;124801;1099;104242;-77
2022/10/11 08:10:46;;;;;;;22.77;9.67;;;;;;;11.64;67.80;101403.84;124694;1099;101856;-78
2022/10/11 08:13:17;;;;;;;22.43;9.77;;;;;;;11.71;67.38;101392.80;125121;1099;102345;-77
2022/10/11 08:16:09;;;;;;;32.70;10.20;;;;;;;11.96;67.49;101407.08;125690;1099;104341;-77
2022/10/11 08:18:41;;;;;;;26.83;10.87;;;;;;;12.14;67.00;101399.08;124863;1099;104236;-78
2022/10/11 08:21:17;;;;;;;32.27;11.43;;;;;;;12.28;67.01;101395.34;124814;1098;103058;-78
2022/10/11 08:23:49;;;;;;;27.20;11.93;;;;;;;12.41;65.95;101396.75;124704;1099;104072;-78
2022/10/11 08:26:24;;;;;;;29.27;11.90;;;;;;;12.51;66.42;101398.95;124876;1099;104169;-78
2022/10/11 08:29:03;;;;;;;33.83;12.00;;;;;;;12.63;65.94;101397.66;124421;1099;110390;-79
2022/10/11 08:31:37;;;;;;;25.17;10.27;;;;;;;12.77;65.89;101391.22;124357;1099;102216;-78
2022/10/11 08:34:13;;;;;;;24.53;11.10;;;;;;;12.89;66.01;101386.45;125247;1099;104332;-77
2022/10/11 08:36:48;;;;;;;27.87;12.07;;;;;;;13.01;65.07;101385.14;124776;1099;104355;-77
2022/10/11 08:39:20;;;;;;;26.37;9.93;;;;;;;13.16;65.02;101384.86;125738;1099;104130;-77
2022/10/11 08:42:01;;;;;;;25.60;10.57;;;;;;;13.30;65.53;101378.38;124997;1099;104724;-78
2022/10/11 08:44:44;;;;;;;24.17;10.73;;;;;;;13.46;65.37;101374.62;125715;1099;104290;-77
2022/10/11 08:47:23;;;;;;;22.73;9.43;;;;;;;13.61;64.57;101377.84;124871;1099;104284;-77
2022/10/11 08:49:54;;;;;;;19.23;9.37;;;;;;;13.65;63.62;101377.13;125595;1099;107022;-77
2022/10/11 08:52:31;;;;;;;25.07;10.50;;;;;;;13.69;64.01;101377.23;124637;1099;102492;-77
2022/10/11 08:55:10;;;;;;;22.87;10.33;;;;;;;13.77;63.45;101375.77;124943;1098;104245;-78
2022/10/11 08:57:48;;;;;;;24.40;9.53;;;;;;;13.81;63.36;101370.66;124863;1099;102320;-78
2022/10/11 09:00:32;;;;;;;23.75;8.85;;;;;;;13.87;63.32;101367.36;125976;1098;117807;-77
2022/10/11 09:03:24;;;;;;;14.70;5.43;;;;;;;14.00;62.68;101369.58;124852;1099;104325;-77
2022/10/11 09:06:07;;;;;;;10.50;4.53;;;;;;;14.11;62.27;101355.87;124443;1102;104301;-77
2022/10/11 09:08:56;;;;;;;12.37;4.70;;;;;;;14.30;62.79;101370.59;124498;1099;104235;-77
2022/10/11 09:11:38;;;;;;;9.93;3.40;;;;;;;14.41;62.49;101368.33;125289;1099;102928;-78
2022/10/11 09:14:38;;;;;;;9.63;3.77;;;;;;;14.51;61.42;101362.52;124436;1099;104271;-78
2022/10/11 09:17:25;;;;;;;9.37;3.67;;;;;;;14.64;61.35;101348.89;124806;1098;102254;-77
2022/10/11 09:20:36;;;;;;;7.80;3.40;;;;;;;14.74;60.89;101343.06;124507;1099;102620;-77
2022/10/11 09:23:22;;;;;;;8.17;3.33;;;;;;;14.89;60.55;101347.92;125832;1098;104187;-77
2022/10/11 09:26:05;;;;;;;6.43;3.07;;;;;;;15.08;61.07;101346.77;124549;1099;104235;-77
2022/10/11 09:28:52;;;;;;;11.33;3.30;;;;;;;15.20;60.08;101350.63;124811;1099;104163;-77
2022/10/11 09:31:34;;;;;;;10.83;2.70;;;;;;;15.25;59.06;101346.38;125323;1099;102835;-77
2022/10/11 09:34:16;;;;;;;8.63;3.03;;;;;;;15.31;58.69;101349.20;124751;1099;102244;-77
2022/10/11 09:37:04;;;;;;;6.45;2.85;;;;;;;15.32;56.66;101337.78;124428;1101;102976;-78
2022/10/11 09:39:39;;;;;;;6.03;2.20;;;;;;;15.26;55.11;101338.48;124580;1099;104156;-78
2022/10/11 09:42:13;;;;;;;5.47;2.20;;;;;;;15.24;54.93;101328.73;124969;1099;103071;-78
2022/10/11 09:44:52;;;;;;;4.37;2.43;;;;;;;15.34;56.10;101337.83;124788;1098;104451;-78
2022/10/11 09:47:30;;;;;;;5.07;2.13;;;;;;;15.43;56.89;101327.52;124400;1099;104177;-77
2022/10/11 09:50:14;;;;;;;4.43;2.20;;;;;;;15.53;56.65;101318.09;124443;1102;104179;-78
2022/10/11 09:52:53;;;;;;;7.43;2.67;;;;;;;15.67;55.67;101315.84;124907;1098;104249;-77
2022/10/11 09:55:37;;;;;;;6.13;2.53;;;;;;;15.78;55.66;101311.77;124945;1099;103649;-77
2022/10/11 09:58:30;;;;;;;5.67;2.40;;;;;;;15.76;54.40;101306.40;125011;1099;104261;-78
2022/10/11 10:01:07;;;;;;;6.43;2.53;;;;;;;15.81;55.15;101304.80;125004;1099;102703;-78
2022/10/11 10:03:43;;;;;;;7.33;2.33;;;;;;;15.85;54.90;101302.23;125859;1099;104217;-77
2022/10/11 10:06:22;;;;;;;6.57;2.53;;;;;;;15.92;54.73;101302.44;124873;1099;102934;-78
2022/10/11 10:09:16;;;;;;;6.17;2.70;;;;;;;16.04;55.01;101304.53;125087;1099;104265;-76
2022/10/11 10:11:48;;;;;;;8.50;2.93;;;;;;;16.12;53.97;101292.38;124786;1099;106925;-77
2022/10/11 10:14:27;;;;;;;8.70;2.57;;;;;;;16.21;54.29;101283.78;125017;1099;104191;-77
2022/10/11 10:17:05;;;;;;;6.00;2.50;;;;;;;16.29;54.15;101289.27;124994;1099;104239;-78
2022/10/11 10:19:47;;;;;;;4.87;2.60;;;;;;;16.37;54.10;101294.76;126139;1098;104207;-78
2022/10/11 10:22:21;;;;;;;5.57;2.70;;;;;;;16.41;54.28;101281.63;124913;1099;117808;-78
2022/10/11 10:24:54;;;;;;;7.37;2.97;;;;;;;16.44;52.91;101280.78;125157;1099;102258;-77
2022/10/11 10:27:33;;;;;;;7.20;3.20;;;;;;;16.49;53.15;101273.87;125754;1099;104048;-76
2022/10/11 10:30:27;;;;;;;7.43;2.67;;;;;;;16.52;53.56;101272.17;126729;1098;101772;-77
2022/10/11 10:33:06;;;;;;;4.83;2.70;;;;;;;16.60;52.59;101264.41;125430;1099;101983;-75
2022/10/11 10:35:43;;;;;;;7.30;2.80;;;;;;;16.69;52.69;101271.69;125131;1099;102283;-75
2022/10/11 10:38:25;;;;;;;5.50;2.40;;;;;;;16.74;52.16;101269.14;124818;1099;102534;-75
2022/10/11 10:40:58;;;;;;;9.53;2.87;;;;;;;16.77;51.97;101263.91;124865;1099;104216;-75
2022/10/11 10:43:34;;;;;;;11.57;3.20;;;;;;;16.81;52.46;101257.80;124715;1098;104220;-76
2022/10/11 10:46:26;;;;;;;9.67;3.00;;;;;;;16.77;51.10;101254.20;124289;1099;102828;-76
2022/10/11 10:49:12;;;;;;;8.43;3.30;;;;;;;16.80;51.47;101250.73;124750;1099;102219;-76
2022/10/11 10:52:01;;;;;;;7.60;3.03;;;;;;;16.84;51.13;101247.27;124681;1099;104225;-77
2022/10/11 10:54:44;;;;;;;6.77;2.93;;;;;;;16.86;51.19;101246.48;124234;1102;104259;-76
2022/10/11 10:57:24;;;;;;;7.97;2.93;;;;;;;16.89;50.91;101246.55;124270;1102;104186;-77
2022/10/11 11:00:20;;;;;;;6.83;2.73;;;;;;;16.85;50.38;101242.00;124314;1098;103847;-77
2022/10/11 11:03:00;;;;;;;5.07;2.47;;;;;;;16.89;50.20;101248.28;124816;1098;104264;-77
2022/10/11 11:05:53;;;;;;;7.17;2.60;;;;;;;16.91;50.08;101243.02;125180;1099;102591;-77
2022/10/11 11:08:39;;;;;;;7.50;2.93;;;;;;;16.92;49.42;101243.05;125588;1099;104182;-77
2022/10/11 11:11:35;;;;;;;4.23;2.50;;;;;;;16.98;49.82;101237.88;124795;1099;104248;-76
2022/10/11 11:14:19;;;;;;;9.20;2.70;;;;;;;17.07;49.78;101237.19;124816;1099;104166;-77
2022/10/11 11:17:02;;;;;;;6.90;2.80;;;;;;;17.11;49.42;101224.88;124811;1099;102872;-76
2022/10/11 11:19:47;;;;;;;7.53;2.80;;;;;;;17.11;48.99;101216.92;124809;1099;104057;-79
2022/10/11 11:22:30;;;;;;;2.87;2.20;;;;;;;17.13;49.37;101221.41;124428;1098;104265;-78
2022/10/11 11:25:16;;;;;;;8.03;2.63;;;;;;;17.17;48.86;101215.31;124748;1099;104265;-77
2022/10/11 11:28:03;;;;;;;7.23;2.70;;;;;;;17.23;48.96;101211.88;124400;1099;104230;-78
2022/10/11 11:30:51;;;;;;;4.23;2.20;;;;;;;17.23;48.03;101211.88;124591;1099;103206;-79
2022/10/11 11:33:36;;;;;;;6.10;2.50;;;;;;;17.27;47.48;101207.54;124345;1099;102868;-78
2022/10/11 11:36:14;;;;;;;5.10;2.37;;;;;;;17.28;47.28;101207.58;124807;1099;104172;-79
2022/10/11 11:39:00;;;;;;;6.90;2.50;;;;;;;17.29;47.22;101208.45;125187;1100;103044;-79
2022/10/11 11:41:41;;;;;;;6.10;2.63;;;;;;;17.29;47.62;101200.50;124745;1099;104156;-79
2022/10/11 11:44:20;;;;;;;11.35;2.72;;;;;;;17.34;47.52;101212.08;124404;1102;104198;-78
2022/10/11 11:47:30;;;;;;;8.80;2.80;;;;;;;17.34;47.04;101206.77;124784;1099;104179;-78
2022/10/11 11:50:14;;;;;;;7.55;2.60;;;;;;;17.34;46.99;101204.13;124321;1102;104297;-78